sensor_id;sensor_type;location;lat;lon;timestamp;P1;durP1;ratioP1;P2;durP2;ratioP2
4244;SDS011;2136;48.502;9.194;2022-07-19T00:01:49;8.37;;;3.67;;
4244;SDS011;2136;48.502;9.194;2022-07-19T00:04:16;7.60;;;3.47;;
4244;SDS011;2136;48.502;9.194;2022-07-19T00:06:43;5.27;;;3.07;;
4244;SDS011;2136;48.502;9.194;2022-07-19T00:09:09;3.80;;;3.40;;
4244;SDS011;2136;48.502;9.194;2022-07-19T00:11:36;4.50;;;3.87;;
4244;SDS011;2136;48.502;9.194;2022-07-19T00:14:03;3.60;;;3.30;;
4244;SDS011;2136;48.502;9.194;2022-07-19T00:16:31;3.53;;;3.23;;
4244;SDS011;2136;48.502;9.194;2022-07-19T00:18:58;4.13;;;3.13;;
4244;SDS011;2136;48.502;9.194;2022-07-19T00:21:25;3.83;;;2.87;;
4244;SDS011;2136;48.502;9.194;2022-07-19T00:23:52;5.67;;;2.70;;
4244;SDS011;2136;48.502;9.194;2022-07-19T00:26:18;2.80;;;2.60;;
4244;SDS011;2136;48.502;9.194;2022-07-19T00:28:45;3.17;;;2.87;;
4244;SDS011;2136;48.502;9.194;2022-07-19T00:31:12;3.93;;;3.40;;
4244;SDS011;2136;48.502;9.194;2022-07-19T00:33:40;5.53;;;3.40;;
4244;SDS011;2136;48.502;9.194;2022-07-19T00:36:07;3.67;;;3.37;;
4244;SDS011;2136;48.502;9.194;2022-07-19T00:38:34;5.47;;;3.50;;
4244;SDS011;2136;48.502;9.194;2022-07-19T00:41:01;4.03;;;3.00;;
4244;SDS011;2136;48.502;9.194;2022-07-19T00:43:28;3.37;;;3.07;;
4244;SDS011;2136;48.502;9.194;2022-07-19T00:45:55;5.17;;;3.30;;
4244;SDS011;2136;48.502;9.194;2022-07-19T00:48:22;6.10;;;3.70;;
4244;SDS011;2136;48.502;9.194;2022-07-19T00:50:50;5.83;;;3.20;;
4244;SDS011;2136;48.502;9.194;2022-07-19T00:53:17;7.70;;;3.77;;
4244;SDS011;2136;48.502;9.194;2022-07-19T00:55:45;3.60;;;3.40;;
4244;SDS011;2136;48.502;9.194;2022-07-19T00:58:12;3.53;;;3.33;;
4244;SDS011;2136;48.502;9.194;2022-07-19T01:00:39;5.17;;;3.23;;
4244;SDS011;2136;48.502;9.194;2022-07-19T01:03:06;7.23;;;3.20;;
4244;SDS011;2136;48.502;9.194;2022-07-19T01:05:34;4.40;;;3.33;;
4244;SDS011;2136;48.502;9.194;2022-07-19T01:08:02;6.47;;;3.80;;
4244;SDS011;2136;48.502;9.194;2022-07-19T01:10:29;7.60;;;3.93;;
4244;SDS011;2136;48.502;9.194;2022-07-19T01:12:56;3.90;;;3.50;;
4244;SDS011;2136;48.502;9.194;2022-07-19T01:15:23;3.50;;;3.20;;
4244;SDS011;2136;48.502;9.194;2022-07-19T01:17:52;3.67;;;3.40;;
4244;SDS011;2136;48.502;9.194;2022-07-19T01:20:20;5.23;;;2.93;;
4244;SDS011;2136;48.502;9.194;2022-07-19T01:22:51;3.73;;;3.53;;
4244;SDS011;2136;48.502;9.194;2022-07-19T01:25:17;5.87;;;3.73;;
4244;SDS011;2136;48.502;9.194;2022-07-19T01:27:45;4.23;;;3.50;;
4244;SDS011;2136;48.502;9.194;2022-07-19T01:30:14;9.43;;;3.43;;
4244;SDS011;2136;48.502;9.194;2022-07-19T01:32:43;3.53;;;3.23;;
4244;SDS011;2136;48.502;9.194;2022-07-19T01:35:11;6.20;;;3.10;;
4244;SDS011;2136;48.502;9.194;2022-07-19T01:37:38;3.50;;;3.27;;
4244;SDS011;2136;48.502;9.194;2022-07-19T01:40:08;4.30;;;3.60;;
4244;SDS011;2136;48.502;9.194;2022-07-19T01:42:36;9.03;;;3.40;;
4244;SDS011;2136;48.502;9.194;2022-07-19T01:45:03;5.00;;;3.20;;
4244;SDS011;2136;48.502;9.194;2022-07-19T01:47:32;4.17;;;3.80;;
4244;SDS011;2136;48.502;9.194;2022-07-19T01:49:58;3.87;;;3.53;;
4244;SDS011;2136;48.502;9.194;2022-07-19T01:52:25;5.93;;;3.20;;
4244;SDS011;2136;48.502;9.194;2022-07-19T01:54:52;5.37;;;4.07;;
4244;SDS011;2136;48.502;9.194;2022-07-19T01:57:20;7.77;;;3.67;;
4244;SDS011;2136;48.502;9.194;2022-07-19T01:59:47;6.50;;;3.63;;
4244;SDS011;2136;48.502;9.194;2022-07-19T02:02:14;4.20;;;3.63;;
4244;SDS011;2136;48.502;9.194;2022-07-19T02:04:41;10.53;;;3.63;;
4244;SDS011;2136;48.502;9.194;2022-07-19T02:07:08;6.33;;;3.37;;
4244;SDS011;2136;48.502;9.194;2022-07-19T02:09:34;3.70;;;3.40;;
4244;SDS011;2136;48.502;9.194;2022-07-19T02:12:01;4.20;;;3.67;;
4244;SDS011;2136;48.502;9.194;2022-07-19T02:14:30;4.60;;;4.17;;
4244;SDS011;2136;48.502;9.194;2022-07-19T02:16:57;6.60;;;3.90;;
4244;SDS011;2136;48.502;9.194;2022-07-19T02:19:23;3.77;;;3.43;;
4244;SDS011;2136;48.502;9.194;2022-07-19T02:21:50;9.27;;;3.80;;
4244;SDS011;2136;48.502;9.194;2022-07-19T02:24:17;4.20;;;3.80;;
4244;SDS011;2136;48.502;9.194;2022-07-19T02:26:44;9.73;;;4.50;;
4244;SDS011;2136;48.502;9.194;2022-07-19T02:29:11;4.40;;;3.63;;
4244;SDS011;2136;48.502;9.194;2022-07-19T02:31:39;4.50;;;3.53;;
4244;SDS011;2136;48.502;9.194;2022-07-19T02:34:06;8.43;;;4.13;;
4244;SDS011;2136;48.502;9.194;2022-07-19T02:36:33;7.03;;;3.70;;
4244;SDS011;2136;48.502;9.194;2022-07-19T02:39:00;4.43;;;3.93;;
4244;SDS011;2136;48.502;9.194;2022-07-19T02:41:27;6.27;;;4.20;;
4244;SDS011;2136;48.502;9.194;2022-07-19T02:43:53;4.60;;;3.63;;
4244;SDS011;2136;48.502;9.194;2022-07-19T02:46:20;8.67;;;4.10;;
4244;SDS011;2136;48.502;9.194;2022-07-19T02:48:48;3.80;;;3.40;;
4244;SDS011;2136;48.502;9.194;2022-07-19T02:51:15;6.50;;;5.27;;
4244;SDS011;2136;48.502;9.194;2022-07-19T02:53:42;3.83;;;3.40;;
4244;SDS011;2136;48.502;9.194;2022-07-19T02:56:09;4.60;;;3.47;;
4244;SDS011;2136;48.502;9.194;2022-07-19T02:58:36;5.07;;;3.63;;
4244;SDS011;2136;48.502;9.194;2022-07-19T03:01:02;5.73;;;4.43;;
4244;SDS011;2136;48.502;9.194;2022-07-19T03:03:29;6.30;;;3.77;;
4244;SDS011;2136;48.502;9.194;2022-07-19T03:06:18;3.60;;;3.20;;
4244;SDS011;2136;48.502;9.194;2022-07-19T03:08:45;5.93;;;4.33;;
4244;SDS011;2136;48.502;9.194;2022-07-19T03:11:12;3.60;;;3.30;;
4244;SDS011;2136;48.502;9.194;2022-07-19T03:13:39;3.77;;;3.47;;
4244;SDS011;2136;48.502;9.194;2022-07-19T03:16:06;3.93;;;3.47;;
4244;SDS011;2136;48.502;9.194;2022-07-19T03:18:33;3.93;;;3.63;;
4244;SDS011;2136;48.502;9.194;2022-07-19T03:21:00;3.70;;;3.40;;
4244;SDS011;2136;48.502;9.194;2022-07-19T03:23:30;4.50;;;3.97;;
4244;SDS011;2136;48.502;9.194;2022-07-19T03:25:58;3.80;;;3.50;;
4244;SDS011;2136;48.502;9.194;2022-07-19T03:28:25;9.73;;;4.33;;
4244;SDS011;2136;48.502;9.194;2022-07-19T03:30:52;7.93;;;3.83;;
4244;SDS011;2136;48.502;9.194;2022-07-19T03:33:19;5.60;;;4.20;;
4244;SDS011;2136;48.502;9.194;2022-07-19T03:35:46;6.10;;;4.33;;
4244;SDS011;2136;48.502;9.194;2022-07-19T03:38:13;4.20;;;3.80;;
4244;SDS011;2136;48.502;9.194;2022-07-19T03:40:43;4.77;;;4.27;;
4244;SDS011;2136;48.502;9.194;2022-07-19T03:43:12;4.23;;;3.67;;
4244;SDS011;2136;48.502;9.194;2022-07-19T03:45:39;10.40;;;4.30;;
4244;SDS011;2136;48.502;9.194;2022-07-19T03:48:06;6.83;;;4.03;;
4244;SDS011;2136;48.502;9.194;2022-07-19T03:50:32;4.37;;;4.03;;
4244;SDS011;2136;48.502;9.194;2022-07-19T03:52:59;11.77;;;3.90;;
4244;SDS011;2136;48.502;9.194;2022-07-19T03:55:26;8.23;;;3.90;;
4244;SDS011;2136;48.502;9.194;2022-07-19T03:57:54;5.63;;;4.07;;
4244;SDS011;2136;48.502;9.194;2022-07-19T04:00:21;4.13;;;3.73;;
4244;SDS011;2136;48.502;9.194;2022-07-19T04:02:48;4.40;;;3.50;;
4244;SDS011;2136;48.502;9.194;2022-07-19T04:05:15;5.67;;;3.80;;
4244;SDS011;2136;48.502;9.194;2022-07-19T04:07:42;4.00;;;3.50;;
4244;SDS011;2136;48.502;9.194;2022-07-19T04:10:09;5.03;;;3.73;;
4244;SDS011;2136;48.502;9.194;2022-07-19T04:12:36;6.43;;;4.13;;
4244;SDS011;2136;48.502;9.194;2022-07-19T04:15:06;9.00;;;4.47;;
4244;SDS011;2136;48.502;9.194;2022-07-19T04:17:34;5.80;;;4.10;;
4244;SDS011;2136;48.502;9.194;2022-07-19T04:20:01;4.13;;;3.40;;
4244;SDS011;2136;48.502;9.194;2022-07-19T04:22:29;8.37;;;4.00;;
4244;SDS011;2136;48.502;9.194;2022-07-19T04:24:56;4.50;;;4.10;;
4244;SDS011;2136;48.502;9.194;2022-07-19T04:27:23;4.60;;;4.17;;
4244;SDS011;2136;48.502;9.194;2022-07-19T04:29:50;4.27;;;3.97;;
4244;SDS011;2136;48.502;9.194;2022-07-19T04:32:18;5.23;;;4.57;;
4244;SDS011;2136;48.502;9.194;2022-07-19T04:34:45;7.10;;;4.23;;
4244;SDS011;2136;48.502;9.194;2022-07-19T04:37:12;7.90;;;4.73;;
4244;SDS011;2136;48.502;9.194;2022-07-19T04:39:39;6.00;;;4.50;;
4244;SDS011;2136;48.502;9.194;2022-07-19T04:42:05;4.63;;;4.20;;
4244;SDS011;2136;48.502;9.194;2022-07-19T04:44:32;7.50;;;4.30;;
4244;SDS011;2136;48.502;9.194;2022-07-19T04:46:59;6.33;;;4.70;;
4244;SDS011;2136;48.502;9.194;2022-07-19T04:49:28;6.90;;;4.33;;
4244;SDS011;2136;48.502;9.194;2022-07-19T04:51:55;7.63;;;5.17;;
4244;SDS011;2136;48.502;9.194;2022-07-19T04:54:21;5.53;;;4.90;;
4244;SDS011;2136;48.502;9.194;2022-07-19T04:56:48;5.67;;;4.77;;
4244;SDS011;2136;48.502;9.194;2022-07-19T04:59:15;10.07;;;5.27;;
4244;SDS011;2136;48.502;9.194;2022-07-19T05:01:42;7.77;;;5.10;;
4244;SDS011;2136;48.502;9.194;2022-07-19T05:04:09;8.33;;;5.47;;
4244;SDS011;2136;48.502;9.194;2022-07-19T05:06:37;8.20;;;5.27;;
4244;SDS011;2136;48.502;9.194;2022-07-19T05:09:04;9.00;;;6.37;;
4244;SDS011;2136;48.502;9.194;2022-07-19T05:11:31;6.53;;;5.17;;
4244;SDS011;2136;48.502;9.194;2022-07-19T05:13:58;6.67;;;5.70;;
4244;SDS011;2136;48.502;9.194;2022-07-19T05:16:25;8.73;;;6.00;;
4244;SDS011;2136;48.502;9.194;2022-07-19T05:18:51;6.72;;;4.57;;
4244;SDS011;2136;48.502;9.194;2022-07-19T05:21:18;7.83;;;5.33;;
4244;SDS011;2136;48.502;9.194;2022-07-19T05:23:46;8.93;;;5.73;;
4244;SDS011;2136;48.502;9.194;2022-07-19T05:26:13;11.07;;;6.00;;
4244;SDS011;2136;48.502;9.194;2022-07-19T05:28:40;5.23;;;4.80;;
4244;SDS011;2136;48.502;9.194;2022-07-19T05:31:07;6.57;;;4.90;;
4244;SDS011;2136;48.502;9.194;2022-07-19T05:33:34;5.70;;;5.20;;
4244;SDS011;2136;48.502;9.194;2022-07-19T05:36:00;8.30;;;5.60;;
4244;SDS011;2136;48.502;9.194;2022-07-19T05:38:27;6.20;;;4.80;;
4244;SDS011;2136;48.502;9.194;2022-07-19T05:41:00;7.10;;;5.47;;
4244;SDS011;2136;48.502;9.194;2022-07-19T05:43:27;10.90;;;6.20;;
4244;SDS011;2136;48.502;9.194;2022-07-19T05:45:54;8.63;;;5.07;;
4244;SDS011;2136;48.502;9.194;2022-07-19T05:48:21;10.93;;;5.67;;
4244;SDS011;2136;48.502;9.194;2022-07-19T05:50:48;7.93;;;6.20;;
4244;SDS011;2136;48.502;9.194;2022-07-19T05:53:14;6.53;;;5.90;;
4244;SDS011;2136;48.502;9.194;2022-07-19T05:55:42;5.30;;;4.80;;
4244;SDS011;2136;48.502;9.194;2022-07-19T05:58:10;6.30;;;4.70;;
4244;SDS011;2136;48.502;9.194;2022-07-19T06:00:37;9.10;;;5.13;;
4244;SDS011;2136;48.502;9.194;2022-07-19T06:03:24;7.53;;;6.50;;
4244;SDS011;2136;48.502;9.194;2022-07-19T06:05:51;8.83;;;5.73;;
4244;SDS011;2136;48.502;9.194;2022-07-19T06:08:18;5.10;;;4.60;;
4244;SDS011;2136;48.502;9.194;2022-07-19T06:10:45;4.60;;;4.10;;
4244;SDS011;2136;48.502;9.194;2022-07-19T06:13:13;6.55;;;5.18;;
4244;SDS011;2136;48.502;9.194;2022-07-19T06:15:40;6.53;;;5.20;;
4244;SDS011;2136;48.502;9.194;2022-07-19T06:18:07;6.10;;;4.70;;
4244;SDS011;2136;48.502;9.194;2022-07-19T06:20:34;4.80;;;4.40;;
4244;SDS011;2136;48.502;9.194;2022-07-19T06:23:01;12.77;;;5.47;;
4244;SDS011;2136;48.502;9.194;2022-07-19T06:25:28;9.60;;;5.10;;
4244;SDS011;2136;48.502;9.194;2022-07-19T06:27:55;12.50;;;4.90;;
4244;SDS011;2136;48.502;9.194;2022-07-19T06:30:23;5.63;;;4.57;;
4244;SDS011;2136;48.502;9.194;2022-07-19T06:32:50;6.72;;;4.40;;
4244;SDS011;2136;48.502;9.194;2022-07-19T06:35:17;14.27;;;5.10;;
4244;SDS011;2136;48.502;9.194;2022-07-19T06:37:44;5.80;;;4.70;;
4244;SDS011;2136;48.502;9.194;2022-07-19T06:40:11;7.70;;;4.70;;
4244;SDS011;2136;48.502;9.194;2022-07-19T06:42:38;16.07;;;5.27;;
4244;SDS011;2136;48.502;9.194;2022-07-19T06:45:05;8.97;;;5.07;;
4244;SDS011;2136;48.502;9.194;2022-07-19T06:47:34;4.93;;;4.37;;
4244;SDS011;2136;48.502;9.194;2022-07-19T06:50:01;5.17;;;4.67;;
4244;SDS011;2136;48.502;9.194;2022-07-19T06:52:29;5.20;;;4.70;;
4244;SDS011;2136;48.502;9.194;2022-07-19T06:54:55;10.40;;;4.70;;
4244;SDS011;2136;48.502;9.194;2022-07-19T06:57:22;6.83;;;4.00;;
4244;SDS011;2136;48.502;9.194;2022-07-19T06:59:49;9.90;;;4.40;;
4244;SDS011;2136;48.502;9.194;2022-07-19T07:02:16;6.40;;;4.40;;
4244;SDS011;2136;48.502;9.194;2022-07-19T07:04:44;4.40;;;3.87;;
4244;SDS011;2136;48.502;9.194;2022-07-19T07:07:11;7.93;;;3.60;;
4244;SDS011;2136;48.502;9.194;2022-07-19T07:09:38;5.50;;;3.67;;
4244;SDS011;2136;48.502;9.194;2022-07-19T07:12:05;5.43;;;3.90;;
4244;SDS011;2136;48.502;9.194;2022-07-19T07:14:33;4.87;;;4.30;;
4244;SDS011;2136;48.502;9.194;2022-07-19T07:17:00;6.10;;;4.10;;
4244;SDS011;2136;48.502;9.194;2022-07-19T07:19:27;11.60;;;3.63;;
4244;SDS011;2136;48.502;9.194;2022-07-19T07:21:55;12.53;;;4.40;;
4244;SDS011;2136;48.502;9.194;2022-07-19T07:24:25;6.90;;;4.47;;
4244;SDS011;2136;48.502;9.194;2022-07-19T07:26:51;7.53;;;3.93;;
4244;SDS011;2136;48.502;9.194;2022-07-19T07:29:18;4.73;;;3.33;;
4244;SDS011;2136;48.502;9.194;2022-07-19T07:31:45;3.83;;;3.50;;
4244;SDS011;2136;48.502;9.194;2022-07-19T07:34:13;3.20;;;2.90;;
4244;SDS011;2136;48.502;9.194;2022-07-19T07:36:39;5.60;;;3.20;;
4244;SDS011;2136;48.502;9.194;2022-07-19T07:39:08;3.60;;;3.00;;
4244;SDS011;2136;48.502;9.194;2022-07-19T07:41:35;2.93;;;2.73;;
4244;SDS011;2136;48.502;9.194;2022-07-19T07:44:02;5.00;;;3.43;;
4244;SDS011;2136;48.502;9.194;2022-07-19T07:46:29;3.70;;;2.90;;
4244;SDS011;2136;48.502;9.194;2022-07-19T07:48:56;3.67;;;3.37;;
4244;SDS011;2136;48.502;9.194;2022-07-19T07:51:24;5.03;;;3.43;;
4244;SDS011;2136;48.502;9.194;2022-07-19T07:53:51;5.63;;;4.70;;
4244;SDS011;2136;48.502;9.194;2022-07-19T07:56:19;4.23;;;3.70;;
4244;SDS011;2136;48.502;9.194;2022-07-19T07:58:46;5.93;;;3.47;;
4244;SDS011;2136;48.502;9.194;2022-07-19T08:01:13;5.60;;;3.83;;
4244;SDS011;2136;48.502;9.194;2022-07-19T08:03:41;10.13;;;3.43;;
4244;SDS011;2136;48.502;9.194;2022-07-19T08:06:08;4.83;;;3.00;;
4244;SDS011;2136;48.502;9.194;2022-07-19T08:08:35;4.67;;;2.67;;
4244;SDS011;2136;48.502;9.194;2022-07-19T08:11:03;4.60;;;3.10;;
4244;SDS011;2136;48.502;9.194;2022-07-19T08:13:31;6.20;;;3.03;;
4244;SDS011;2136;48.502;9.194;2022-07-19T08:15:58;24.90;;;3.27;;
4244;SDS011;2136;48.502;9.194;2022-07-19T08:18:25;3.30;;;3.00;;
4244;SDS011;2136;48.502;9.194;2022-07-19T08:20:52;3.50;;;2.43;;
4244;SDS011;2136;48.502;9.194;2022-07-19T08:23:18;2.87;;;2.60;;
4244;SDS011;2136;48.502;9.194;2022-07-19T08:25:45;2.77;;;2.57;;
4244;SDS011;2136;48.502;9.194;2022-07-19T08:28:12;15.27;;;2.57;;
4244;SDS011;2136;48.502;9.194;2022-07-19T08:30:40;2.50;;;2.30;;
4244;SDS011;2136;48.502;9.194;2022-07-19T08:33:07;1.87;;;1.70;;
4244;SDS011;2136;48.502;9.194;2022-07-19T08:35:34;2.30;;;2.13;;
4244;SDS011;2136;48.502;9.194;2022-07-19T08:38:02;5.00;;;2.20;;
4244;SDS011;2136;48.502;9.194;2022-07-19T08:40:29;5.10;;;3.10;;
4244;SDS011;2136;48.502;9.194;2022-07-19T08:42:59;3.30;;;2.53;;
4244;SDS011;2136;48.502;9.194;2022-07-19T08:45:29;8.33;;;2.20;;
4244;SDS011;2136;48.502;9.194;2022-07-19T08:47:58;3.77;;;2.70;;
4244;SDS011;2136;48.502;9.194;2022-07-19T08:50:25;2.50;;;2.30;;
4244;SDS011;2136;48.502;9.194;2022-07-19T08:52:54;2.30;;;2.10;;
4244;SDS011;2136;48.502;9.194;2022-07-19T08:55:23;7.80;;;2.20;;
4244;SDS011;2136;48.502;9.194;2022-07-19T08:57:50;8.60;;;2.27;;
4244;SDS011;2136;48.502;9.194;2022-07-19T09:00:22;18.03;;;2.37;;
4244;SDS011;2136;48.502;9.194;2022-07-19T09:02:53;6.93;;;2.47;;
4244;SDS011;2136;48.502;9.194;2022-07-19T09:05:22;4.00;;;2.40;;
4244;SDS011;2136;48.502;9.194;2022-07-19T09:08:00;2.60;;;2.10;;
4244;SDS011;2136;48.502;9.194;2022-07-19T09:10:29;2.43;;;2.23;;
4244;SDS011;2136;48.502;9.194;2022-07-19T09:12:58;3.30;;;2.20;;
4244;SDS011;2136;48.502;9.194;2022-07-19T09:15:36;7.70;;;3.20;;
4244;SDS011;2136;48.502;9.194;2022-07-19T09:18:09;3.37;;;2.50;;
4244;SDS011;2136;48.502;9.194;2022-07-19T09:20:39;2.70;;;1.80;;
4244;SDS011;2136;48.502;9.194;2022-07-19T09:23:06;2.17;;;2.00;;
4244;SDS011;2136;48.502;9.194;2022-07-19T09:25:33;2.03;;;1.83;;
4244;SDS011;2136;48.502;9.194;2022-07-19T09:28:01;3.83;;;2.50;;
4244;SDS011;2136;48.502;9.194;2022-07-19T09:30:32;5.10;;;1.90;;
4244;SDS011;2136;48.502;9.194;2022-07-19T09:33:06;3.30;;;3.00;;
4244;SDS011;2136;48.502;9.194;2022-07-19T09:35:39;7.10;;;2.60;;
4244;SDS011;2136;48.502;9.194;2022-07-19T09:38:18;2.60;;;2.40;;
4244;SDS011;2136;48.502;9.194;2022-07-19T09:40:46;2.80;;;2.60;;
4244;SDS011;2136;48.502;9.194;2022-07-19T09:43:14;3.83;;;2.20;;
4244;SDS011;2136;48.502;9.194;2022-07-19T09:45:41;1.97;;;1.87;;
4244;SDS011;2136;48.502;9.194;2022-07-19T09:48:09;5.13;;;2.80;;
4244;SDS011;2136;48.502;9.194;2022-07-19T09:50:36;4.83;;;2.63;;
4244;SDS011;2136;48.502;9.194;2022-07-19T09:53:05;3.17;;;2.83;;
4244;SDS011;2136;48.502;9.194;2022-07-19T09:55:32;5.20;;;2.60;;
4244;SDS011;2136;48.502;9.194;2022-07-19T09:58:00;5.97;;;2.43;;
4244;SDS011;2136;48.502;9.194;2022-07-19T10:00:28;3.80;;;2.67;;
4244;SDS011;2136;48.502;9.194;2022-07-19T10:02:56;2.80;;;2.60;;
4244;SDS011;2136;48.502;9.194;2022-07-19T10:05:24;3.73;;;2.23;;
4244;SDS011;2136;48.502;9.194;2022-07-19T10:07:54;2.47;;;2.27;;
4244;SDS011;2136;48.502;9.194;2022-07-19T10:10:21;5.10;;;2.27;;
4244;SDS011;2136;48.502;9.194;2022-07-19T10:12:50;3.33;;;2.60;;
4244;SDS011;2136;48.502;9.194;2022-07-19T10:15:17;2.60;;;2.30;;
4244;SDS011;2136;48.502;9.194;2022-07-19T10:17:47;3.40;;;2.40;;
4244;SDS011;2136;48.502;9.194;2022-07-19T10:20:24;2.80;;;2.60;;
4244;SDS011;2136;48.502;9.194;2022-07-19T10:22:54;2.23;;;2.13;;
4244;SDS011;2136;48.502;9.194;2022-07-19T10:25:24;5.23;;;2.60;;
4244;SDS011;2136;48.502;9.194;2022-07-19T10:28:02;2.90;;;2.70;;
4244;SDS011;2136;48.502;9.194;2022-07-19T10:30:37;4.73;;;2.77;;
4244;SDS011;2136;48.502;9.194;2022-07-19T10:33:25;6.50;;;3.63;;
4244;SDS011;2136;48.502;9.194;2022-07-19T10:35:54;6.20;;;2.90;;
4244;SDS011;2136;48.502;9.194;2022-07-19T10:38:22;2.93;;;2.20;;
4244;SDS011;2136;48.502;9.194;2022-07-19T10:40:49;2.57;;;2.17;;
4244;SDS011;2136;48.502;9.194;2022-07-19T10:43:21;3.33;;;2.40;;
4244;SDS011;2136;48.502;9.194;2022-07-19T10:46:07;4.97;;;2.63;;
4244;SDS011;2136;48.502;9.194;2022-07-19T10:48:35;3.20;;;2.90;;
4244;SDS011;2136;48.502;9.194;2022-07-19T10:51:03;2.67;;;2.47;;
4244;SDS011;2136;48.502;9.194;2022-07-19T10:56:36;4.83;;;2.30;;
4244;SDS011;2136;48.502;9.194;2022-07-19T10:59:04;3.43;;;3.07;;
4244;SDS011;2136;48.502;9.194;2022-07-19T11:01:33;3.10;;;2.90;;
4244;SDS011;2136;48.502;9.194;2022-07-19T11:09:51;5.47;;;2.93;;
4244;SDS011;2136;48.502;9.194;2022-07-19T11:12:24;3.50;;;2.60;;
4244;SDS011;2136;48.502;9.194;2022-07-19T11:14:53;4.00;;;3.37;;
4244;SDS011;2136;48.502;9.194;2022-07-19T11:17:20;3.10;;;2.90;;
4244;SDS011;2136;48.502;9.194;2022-07-19T11:20:01;2.85;;;2.65;;
4244;SDS011;2136;48.502;9.194;2022-07-19T11:22:35;3.83;;;3.53;;
4244;SDS011;2136;48.502;9.194;2022-07-19T11:25:06;3.15;;;2.80;;
4244;SDS011;2136;48.502;9.194;2022-07-19T11:27:34;3.38;;;3.10;;
4244;SDS011;2136;48.502;9.194;2022-07-19T11:30:03;2.90;;;2.70;;
4244;SDS011;2136;48.502;9.194;2022-07-19T11:32:32;3.10;;;2.85;;
4244;SDS011;2136;48.502;9.194;2022-07-19T11:35:00;2.83;;;2.63;;
4244;SDS011;2136;48.502;9.194;2022-07-19T11:37:31;3.88;;;3.15;;
4244;SDS011;2136;48.502;9.194;2022-07-19T11:40:00;3.47;;;2.80;;
4244;SDS011;2136;48.502;9.194;2022-07-19T11:42:30;4.82;;;2.53;;
4244;SDS011;2136;48.502;9.194;2022-07-19T11:44:58;3.72;;;3.03;;
4244;SDS011;2136;48.502;9.194;2022-07-19T11:47:33;3.70;;;3.28;;
4244;SDS011;2136;48.502;9.194;2022-07-19T11:50:02;3.10;;;2.90;;
4244;SDS011;2136;48.502;9.194;2022-07-19T11:52:40;2.83;;;2.63;;
4244;SDS011;2136;48.502;9.194;2022-07-19T11:55:08;5.22;;;3.00;;
4244;SDS011;2136;48.502;9.194;2022-07-19T11:57:36;2.67;;;2.58;;
4244;SDS011;2136;48.502;9.194;2022-07-19T12:00:04;3.28;;;2.40;;
4244;SDS011;2136;48.502;9.194;2022-07-19T12:05:21;6.50;;;2.90;;
4244;SDS011;2136;48.502;9.194;2022-07-19T12:07:48;3.50;;;2.78;;
4244;SDS011;2136;48.502;9.194;2022-07-19T12:10:32;3.00;;;2.80;;
4244;SDS011;2136;48.502;9.194;2022-07-19T12:13:06;3.67;;;2.53;;
4244;SDS011;2136;48.502;9.194;2022-07-19T12:15:44;3.20;;;2.30;;
4244;SDS011;2136;48.502;9.194;2022-07-19T12:18:16;2.47;;;2.37;;
4244;SDS011;2136;48.502;9.194;2022-07-19T12:20:44;2.50;;;2.30;;
4244;SDS011;2136;48.502;9.194;2022-07-19T12:23:15;5.40;;;2.30;;
4244;SDS011;2136;48.502;9.194;2022-07-19T12:25:44;2.60;;;2.40;;
4244;SDS011;2136;48.502;9.194;2022-07-19T12:28:13;3.33;;;2.27;;
4244;SDS011;2136;48.502;9.194;2022-07-19T12:30:40;7.83;;;2.63;;
4244;SDS011;2136;48.502;9.194;2022-07-19T12:33:08;3.60;;;2.70;;
4244;SDS011;2136;48.502;9.194;2022-07-19T12:35:43;3.10;;;2.40;;
4244;SDS011;2136;48.502;9.194;2022-07-19T12:38:11;3.70;;;2.70;;
4244;SDS011;2136;48.502;9.194;2022-07-19T12:40:39;2.87;;;2.40;;
4244;SDS011;2136;48.502;9.194;2022-07-19T12:43:07;6.77;;;2.50;;
4244;SDS011;2136;48.502;9.194;2022-07-19T12:45:39;2.47;;;2.23;;
4244;SDS011;2136;48.502;9.194;2022-07-19T12:48:09;2.63;;;2.30;;
4244;SDS011;2136;48.502;9.194;2022-07-19T12:50:38;3.67;;;2.20;;
4244;SDS011;2136;48.502;9.194;2022-07-19T12:53:07;4.43;;;2.30;;
4244;SDS011;2136;48.502;9.194;2022-07-19T12:55:36;4.33;;;2.83;;
4244;SDS011;2136;48.502;9.194;2022-07-19T12:58:05;3.00;;;2.40;;
4244;SDS011;2136;48.502;9.194;2022-07-19T13:00:33;5.43;;;2.40;;
4244;SDS011;2136;48.502;9.194;2022-07-19T13:03:03;2.93;;;2.73;;
4244;SDS011;2136;48.502;9.194;2022-07-19T13:05:31;2.80;;;2.60;;
4244;SDS011;2136;48.502;9.194;2022-07-19T13:07:59;3.40;;;2.33;;
4244;SDS011;2136;48.502;9.194;2022-07-19T13:10:26;7.83;;;3.67;;
4244;SDS011;2136;48.502;9.194;2022-07-19T13:12:54;3.63;;;2.87;;
4244;SDS011;2136;48.502;9.194;2022-07-19T13:15:21;2.93;;;2.60;;
4244;SDS011;2136;48.502;9.194;2022-07-19T13:17:48;2.93;;;2.43;;
4244;SDS011;2136;48.502;9.194;2022-07-19T13:20:16;2.53;;;2.33;;
4244;SDS011;2136;48.502;9.194;2022-07-19T13:22:43;3.73;;;2.70;;
4244;SDS011;2136;48.502;9.194;2022-07-19T13:25:10;6.83;;;2.73;;
4244;SDS011;2136;48.502;9.194;2022-07-19T13:27:38;6.17;;;3.07;;
4244;SDS011;2136;48.502;9.194;2022-07-19T13:30:05;2.80;;;2.60;;
4244;SDS011;2136;48.502;9.194;2022-07-19T13:32:32;4.67;;;3.23;;
4244;SDS011;2136;48.502;9.194;2022-07-19T13:34:59;4.53;;;2.87;;
4244;SDS011;2136;48.502;9.194;2022-07-19T13:37:27;3.13;;;2.67;;
4244;SDS011;2136;48.502;9.194;2022-07-19T13:39:54;5.10;;;2.50;;
4244;SDS011;2136;48.502;9.194;2022-07-19T13:42:21;6.53;;;3.00;;
4244;SDS011;2136;48.502;9.194;2022-07-19T13:44:48;4.10;;;2.50;;
4244;SDS011;2136;48.502;9.194;2022-07-19T13:47:15;6.10;;;2.20;;
4244;SDS011;2136;48.502;9.194;2022-07-19T13:49:42;5.93;;;4.00;;
4244;SDS011;2136;48.502;9.194;2022-07-19T13:52:09;5.47;;;2.90;;
4244;SDS011;2136;48.502;9.194;2022-07-19T13:54:37;4.40;;;2.77;;
4244;SDS011;2136;48.502;9.194;2022-07-19T13:57:04;5.10;;;2.87;;
4244;SDS011;2136;48.502;9.194;2022-07-19T13:59:31;3.60;;;2.70;;
4244;SDS011;2136;48.502;9.194;2022-07-19T14:01:58;3.43;;;2.90;;
4244;SDS011;2136;48.502;9.194;2022-07-19T14:04:26;8.23;;;2.57;;
4244;SDS011;2136;48.502;9.194;2022-07-19T14:06:53;5.60;;;2.30;;
4244;SDS011;2136;48.502;9.194;2022-07-19T14:09:19;3.70;;;2.93;;
4244;SDS011;2136;48.502;9.194;2022-07-19T14:11:48;3.40;;;3.20;;
4244;SDS011;2136;48.502;9.194;2022-07-19T14:14:14;5.67;;;3.37;;
4244;SDS011;2136;48.502;9.194;2022-07-19T14:16:41;10.77;;;3.03;;
4244;SDS011;2136;48.502;9.194;2022-07-19T14:19:10;4.10;;;3.20;;
4244;SDS011;2136;48.502;9.194;2022-07-19T14:21:37;2.20;;;2.00;;
4244;SDS011;2136;48.502;9.194;2022-07-19T14:24:05;7.53;;;3.00;;
4244;SDS011;2136;48.502;9.194;2022-07-19T14:26:33;5.73;;;3.77;;
4244;SDS011;2136;48.502;9.194;2022-07-19T14:29:01;5.30;;;3.80;;
4244;SDS011;2136;48.502;9.194;2022-07-19T14:31:28;2.40;;;2.20;;
4244;SDS011;2136;48.502;9.194;2022-07-19T14:33:56;6.97;;;2.93;;
4244;SDS011;2136;48.502;9.194;2022-07-19T14:36:23;4.80;;;3.03;;
4244;SDS011;2136;48.502;9.194;2022-07-19T14:38:49;2.40;;;2.20;;
4244;SDS011;2136;48.502;9.194;2022-07-19T14:41:16;8.70;;;3.07;;
4244;SDS011;2136;48.502;9.194;2022-07-19T14:43:43;9.90;;;2.70;;
4244;SDS011;2136;48.502;9.194;2022-07-19T14:46:11;4.07;;;2.37;;
4244;SDS011;2136;48.502;9.194;2022-07-19T14:48:38;6.03;;;1.83;;
4244;SDS011;2136;48.502;9.194;2022-07-19T14:51:05;5.20;;;3.80;;
4244;SDS011;2136;48.502;9.194;2022-07-19T14:53:32;9.40;;;3.20;;
4244;SDS011;2136;48.502;9.194;2022-07-19T14:55:59;2.30;;;2.00;;
4244;SDS011;2136;48.502;9.194;2022-07-19T14:58:26;3.47;;;2.23;;
4244;SDS011;2136;48.502;9.194;2022-07-19T15:00:52;4.97;;;2.87;;
4244;SDS011;2136;48.502;9.194;2022-07-19T15:03:21;5.23;;;2.70;;
4244;SDS011;2136;48.502;9.194;2022-07-19T15:05:48;6.37;;;2.60;;
4244;SDS011;2136;48.502;9.194;2022-07-19T15:08:14;2.70;;;2.47;;
4244;SDS011;2136;48.502;9.194;2022-07-19T15:10:41;3.33;;;2.67;;
4244;SDS011;2136;48.502;9.194;2022-07-19T15:13:08;5.03;;;2.40;;
4244;SDS011;2136;48.502;9.194;2022-07-19T15:15:35;3.13;;;2.93;;
4244;SDS011;2136;48.502;9.194;2022-07-19T15:18:02;9.03;;;2.90;;
4244;SDS011;2136;48.502;9.194;2022-07-19T15:20:31;4.67;;;2.20;;
4244;SDS011;2136;48.502;9.194;2022-07-19T15:22:59;1.83;;;1.73;;
4244;SDS011;2136;48.502;9.194;2022-07-19T15:25:25;3.47;;;2.00;;
4244;SDS011;2136;48.502;9.194;2022-07-19T15:27:52;9.60;;;4.07;;
4244;SDS011;2136;48.502;9.194;2022-07-19T15:30:20;6.73;;;2.63;;
4244;SDS011;2136;48.502;9.194;2022-07-19T15:32:47;3.83;;;2.50;;